Time;durP1;ratioP1;P1;durP2;ratioP2;P2;SDS_P1;SDS_P2;PMS_P1;PMS_P2;Temp;Humidity;BMP_temperature;BMP_pressure;BME280_temperature;BME280_humidity;BME280_pressure;Samples;Min_cycle;Max_cycle;Signal;HPM_P1;HPM_P2
2023/04/06 00:00:36;;;;;;;;;;;5.30;99.90;;;;;;5091645;28;20248;-73
2023/04/06 00:03:02;;;;;;;;;;;;;;;;;;5091155;28;20411;-73
2023/04/06 00:05:30;;;;;;;;;;;;;;;;;;5091001;28;19967;-73
2023/04/06 00:07:56;;;;;;;;;;;;;;;;;;5091160;28;20285;-73
2023/04/06 00:10:22;;;;;;;;;;;;;;;;;;5091032;28;19923;-73
2023/04/06 00:12:48;;;;;;;;;;;;;;;;;;5094434;28;19916;-74
2023/04/06 00:15:14;;;;;;;;;;;;;;;;;;5095119;28;19926;-73
2023/04/06 00:17:40;;;;;;;;;;;;;;;;;;5095058;28;20015;-74
2023/04/06 00:20:06;;;;;;;;;;;;;;;;;;5092044;28;19972;-73
2023/04/06 00:22:32;;;;;;;;;;;5.30;99.90;;;;;;5093214;28;19962;-73
2023/04/06 00:24:58;;;;;;;;;;;;;;;;;;5112334;28;20322;-74
2023/04/06 00:27:24;;;;;;;;;;;;;;;;;;5095123;28;19916;-73
2023/04/06 00:29:50;;;;;;;;;;;;;;;;;;5094665;28;19916;-73
2023/04/06 00:32:16;;;;;;;;;;;;;;;;;;5094559;28;19974;-73
2023/04/06 00:34:42;;;;;;;;;;;;;;;;;;5094751;28;19927;-73
2023/04/06 00:37:08;;;;;;;;;;;;;;;;;;5101700;28;19923;-73
2023/04/06 00:39:34;;;;;;;;;;;;;;;;;;5114703;28;19964;-73
2023/04/06 00:42:00;;;;;;;;;;;4.80;99.90;;;;;;5143761;27;19916;-74
2023/04/06 00:44:26;;;;;;;;;;;4.70;99.90;;;;;;5114660;28;20299;-74
2023/04/06 00:46:52;;;;;;;;;;;4.50;99.90;;;;;;5114703;28;19959;-73
2023/04/06 00:49:18;;;;;;;;;;;;;;;;;;5115080;28;19981;-73
2023/04/06 00:51:44;;;;;;;;;;;;;;;;;;5114705;28;20256;-73
2023/04/06 00:54:10;;;;;;;;;;;4.60;99.90;;;;;;5114622;28;19919;-73
2023/04/06 00:56:36;;;;;;;;;;;;;;;;;;5114787;28;19976;-74
2023/04/06 00:59:01;;;;;;;;;;;4.60;99.90;;;;;;5114583;28;19930;-74
2023/04/06 01:01:28;;;;;;;;;;;;;;;;;;5132493;27;19915;-74
2023/04/06 01:03:55;;;;;;;;;;;4.40;99.90;;;;;;5114453;28;19916;-74
2023/04/06 01:06:21;;;;;;;;;;;;;;;;;;5114649;28;19916;-73
2023/04/06 01:08:47;;;;;;;;;;;;;;;;;;5114403;28;19961;-74
2023/04/06 01:11:13;;;;;;;;;;;;;;;;;;5114527;28;19953;-74
2023/04/06 01:13:39;;;;;;;;;;;;;;;;;;5114279;28;19916;-73
2023/04/06 01:16:05;;;;;;;;;;;;;;;;;;5114245;28;19923;-73
2023/04/06 01:18:31;;;;;;;;;;;;;;;;;;5114373;28;19922;-73
2023/04/06 01:20:58;;;;;;;;;;;;;;;;;;5131385;27;19916;-73
2023/04/06 01:23:23;;;;;;;;;;;4.10;99.90;;;;;;5113733;28;19955;-73
2023/04/06 01:25:49;;;;;;;;;;;4.10;99.90;;;;;;5113899;28;19958;-73
2023/04/06 01:28:15;;;;;;;;;;;4.10;99.90;;;;;;5114423;28;20003;-73
2023/04/06 01:30:41;;;;;;;;;;;;;;;;;;5113667;28;19916;-73
2023/04/06 01:33:07;;;;;;;;;;;4.00;99.90;;;;;;5113909;28;20367;-73
2023/04/06 01:35:33;;;;;;;;;;;4.00;99.90;;;;;;5113805;28;19920;-73
2023/04/06 01:37:59;;;;;;;;;;;;;;;;;;5113821;28;19945;-73
2023/04/06 01:40:25;;;;;;;;;;;3.70;99.90;;;;;;5114204;28;19916;-73
2023/04/06 01:42:50;;;;;;;;;;;3.80;99.90;;;;;;5113679;28;19939;-74
2023/04/06 01:45:16;;;;;;;;;;;;;;;;;;5130952;27;19922;-73
2023/04/06 01:47:42;;;;;;;;;;;;;;;;;;5113817;28;19916;-74
2023/04/06 01:50:08;;;;;;;;;;;;;;;;;;5113684;28;19919;-73
2023/04/06 01:52:34;;;;;;;;;;;;;;;;;;5113613;28;19923;-73
2023/04/06 01:55:00;;;;;;;;;;;;;;;;;;5113557;28;19920;-73
2023/04/06 01:57:26;;;;;;;;;;;;;;;;;;5113588;28;20231;-74
2023/04/06 01:59:52;;;;;;;;;;;3.80;99.90;;;;;;5113565;28;19938;-73
2023/04/06 02:02:18;;;;;;;;;;;;;;;;;;5096238;28;19922;-73
2023/04/06 02:04:44;;;;;;;;;;;;;;;;;;5113646;28;19923;-74
2023/04/06 02:07:10;;;;;;;;;;;;;;;;;;5113976;28;20027;-74
2023/04/06 02:09:36;;;;;;;;;;;;;;;;;;5113398;28;20382;-73
2023/04/06 02:12:01;;;;;;;;;;;3.60;99.90;;;;;;5113308;28;19964;-73
2023/04/06 02:14:27;;;;;;;;;;;;;;;;;;5112866;28;19919;-73
2023/04/06 02:16:53;;;;;;;;;;;3.70;99.90;;;;;;5113620;28;19923;-73
2023/04/06 02:19:19;;;;;;;;;;;;;;;;;;5096215;28;20393;-73
2023/04/06 02:21:45;;;;;;;;;;;3.80;99.90;;;;;;5113067;28;19959;-73
2023/04/06 02:24:10;;;;;;;;;;;3.70;99.90;;;;;;5112861;28;19939;-74
2023/04/06 02:26:36;;;;;;;;;;;3.80;99.90;;;;;;5113229;28;19915;-73
2023/04/06 02:29:02;;;;;;;;;;;3.70;99.90;;;;;;5112789;28;19980;-74
2023/04/06 02:31:28;;;;;;;;;;;;;;;;;;5095818;28;19915;-73
2023/04/06 02:33:54;;;;;;;;;;;;;;;;;;5112367;28;19931;-73
2023/04/06 02:36:20;;;;;;;;;;;;;;;;;;5113054;28;20279;-74
2023/04/06 02:38:46;;;;;;;;;;;;;;;;;;5116100;27;20298;-74
2023/04/06 02:41:11;;;;;;;;;;;3.60;99.90;;;;;;5099088;27;19916;-74
2023/04/06 02:43:37;;;;;;;;;;;;;;;;;;5115728;27;19922;-74
2023/04/06 02:46:03;;;;;;;;;;;;;;;;;;5098827;27;19938;-74
2023/04/06 02:48:35;;;;;;;;;;;3.50;99.90;;;;;;5116518;27;19938;-73
2023/04/06 02:51:01;;;;;;;;;;;3.50;99.90;;;;;;5099091;27;19915;-74
2023/04/06 02:53:27;;;;;;;;;;;3.60;99.90;;;;;;5115926;27;20006;-74
2023/04/06 02:55:53;;;;;;;;;;;3.30;99.90;;;;;;5098628;27;19927;-74
2023/04/06 02:58:19;;;;;;;;;;;;;;;;;;5146875;27;19922;-74
2023/04/06 03:00:45;;;;;;;;;;;;;;;;;;5116087;27;20010;-73
2023/04/06 03:03:11;;;;;;;;;;;;;;;;;;5115378;27;20419;-73
2023/04/06 03:05:36;;;;;;;;;;;3.60;99.90;;;;;;5115665;27;19919;-73
2023/04/06 03:08:02;;;;;;;;;;;;;;;;;;5115898;27;19961;-74
2023/04/06 03:10:28;;;;;;;;;;;;;;;;;;5115463;27;19919;-74
2023/04/06 03:12:54;;;;;;;;;;;;;;;;;;5115376;27;19915;-73
2023/04/06 03:15:20;;;;;;;;;;;;;;;;;;5115275;27;19930;-74
2023/04/06 03:17:46;;;;;;;;;;;;;;;;;;5115548;27;19916;-74
2023/04/06 03:20:12;;;;;;;;;;;;;;;;;;5098483;27;20003;-74
2023/04/06 03:22:38;;;;;;;;;;;;;;;;;;5115557;27;19922;-74
2023/04/06 03:25:04;;;;;;;;;;;;;;;;;;5114769;27;20337;-74
2023/04/06 03:27:30;;;;;;;;;;;;;;;;;;5115404;27;19922;-73
2023/04/06 03:29:56;;;;;;;;;;;;;;;;;;5115473;27;19919;-73
2023/04/06 03:32:22;;;;;;;;;;;;;;;;;;5115263;27;19969;-74
2023/04/06 03:34:48;;;;;;;;;;;;;;;;;;5115130;27;19927;-74
2023/04/06 03:37:14;;;;;;;;;;;;;;;;;;5115460;28;20397;-74
2023/04/06 03:39:40;;;;;;;;;;;;;;;;;;5115155;27;20289;-74
2023/04/06 03:42:06;;;;;;;;;;;;;;;;;;5115272;28;19915;-74
2023/04/06 03:44:32;;;;;;;;;;;;;;;;;;5115164;28;19923;-74
2023/04/06 03:46:58;;;;;;;;;;;3.20;99.90;;;;;;5114720;28;19978;-73
2023/04/06 03:49:24;;;;;;;;;;;;;;;;;;5115065;28;19967;-74
2023/04/06 03:51:50;;;;;;;;;;;;;;;;;;5115043;28;19915;-74
2023/04/06 03:54:16;;;;;;;;;;;;;;;;;;5115041;28;19930;-74
2023/04/06 03:56:42;;;;;;;;;;;;;;;;;;5097914;28;19977;-73
2023/04/06 03:59:08;;;;;;;;;;;;;;;;;;5098249;28;20392;-74
2023/04/06 04:01:34;;;;;;;;;;;;;;;;;;5114796;28;19968;-74
2023/04/06 04:04:00;;;;;;;;;;;;;;;;;;5115156;28;19916;-73
2023/04/06 04:06:26;;;;;;;;;;;;;;;;;;5114465;27;19923;-74
2023/04/06 04:08:52;;;;;;;;;;;3.10;99.90;;;;;;5115161;28;20002;-74
2023/04/06 04:11:17;;;;;;;;;;;3.00;99.90;;;;;;5114966;28;20399;-73
2023/04/06 04:13:43;;;;;;;;;;;;;;;;;;5114884;28;19984;-74
2023/04/06 04:16:09;;;;;;;;;;;;;;;;;;5114524;28;19919;-74
2023/04/06 04:18:36;;;;;;;;;;;;;;;;;;5114936;28;19966;-74
2023/04/06 04:21:02;;;;;;;;;;;;;;;;;;5140094;27;19924;-74
2023/04/06 04:23:28;;;;;;;;;;;3.00;99.90;;;;;;5114882;27;20011;-74
2023/04/06 04:25:54;;;;;;;;;;;;;;;;;;5114570;28;20390;-74
2023/04/06 04:28:19;;;;;;;;;;;3.30;99.90;;;;;;5114632;28;19968;-74
2023/04/06 04:30:45;;;;;;;;;;;;;;;;;;5114815;28;19915;-74
2023/04/06 04:33:11;;;;;;;;;;;3.00;99.90;;;;;;5114811;28;20290;-74
2023/04/06 04:35:37;;;;;;;;;;;;;;;;;;5114291;28;19938;-74
2023/04/06 04:38:03;;;;;;;;;;;;;;;;;;5114451;27;19919;-74
2023/04/06 04:40:29;;;;;;;;;;;;;;;;;;5114879;28;20279;-74
2023/04/06 04:42:55;;;;;;;;;;;;;;;;;;5114454;28;19923;-74
2023/04/06 04:45:21;;;;;;;;;;;3.10;99.90;;;;;;5114252;28;19923;-74
2023/04/06 04:47:47;;;;;;;;;;;;;;;;;;5097739;28;19923;-74
2023/04/06 04:50:13;;;;;;;;;;;;;;;;;;5114730;28;19915;-74
2023/04/06 04:52:39;;;;;;;;;;;;;;;;;;5114339;27;20298;-74
2023/04/06 04:55:05;;;;;;;;;;;;;;;;;;5146826;27;19978;-74
2023/04/06 04:57:31;;;;;;;;;;;;;;;;;;5115376;27;19915;-74
2023/04/06 04:59:57;;;;;;;;;;;;;;;;;;5151798;27;20002;-74
2023/04/06 05:02:23;;;;;;;;;;;;;;;;;;5100945;27;20025;-74
2023/04/06 05:04:49;;;;;;;;;;;3.20;99.90;;;;;;5118184;27;19915;-74
2023/04/06 05:07:15;;;;;;;;;;;3.00;99.90;;;;;;5135373;27;20378;-74
2023/04/06 05:09:41;;;;;;;;;;;;;;;;;;5151139;27;19923;-74
2023/04/06 05:12:07;;;;;;;;;;;3.00;99.90;;;;;;5114447;27;19915;-74
2023/04/06 05:14:33;;;;;;;;;;;;;;;;;;5151180;27;19919;-74
2023/04/06 05:16:59;;;;;;;;;;;;;;;;;;5117587;27;19915;-74
2023/04/06 05:19:25;;;;;;;;;;;;;;;;;;5143719;27;19916;-74
2023/04/06 05:21:51;;;;;;;;;;;;;;;;;;5117506;27;19953;-74
2023/04/06 05:24:16;;;;;;;;;;;3.20;99.90;;;;;;5100632;27;20268;-74
2023/04/06 05:26:42;;;;;;;;;;;;;;;;;;5117382;27;19922;-74
2023/04/06 05:29:08;;;;;;;;;;;;;;;;;;5117283;27;19916;-74
2023/04/06 05:31:34;;;;;;;;;;;;;;;;;;5117214;27;19916;-74
2023/04/06 05:34:00;;;;;;;;;;;;;;;;;;5117286;27;20368;-74
2023/04/06 05:36:26;;;;;;;;;;;3.30;99.90;;;;;;5116955;27;19968;-74
2023/04/06 05:38:52;;;;;;;;;;;3.20;99.90;;;;;;5117052;27;19968;-74
2023/04/06 05:41:18;;;;;;;;;;;3.30;99.90;;;;;;5117151;27;19922;-74
2023/04/06 05:43:44;;;;;;;;;;;;;;;;;;5100693;27;19916;-73
2023/04/06 05:46:10;;;;;;;;;;;;;;;;;;5116889;27;19916;-74
2023/04/06 05:48:36;;;;;;;;;;;;;;;;;;5116868;27;19923;-74
2023/04/06 05:51:05;;;;;;;;;;;;;;;;;;5110307;28;19923;-74
2023/04/06 05:53:31;;;;;;;;;;;;;;;;;;5133891;27;19916;-74
2023/04/06 05:56:00;;;;;;;;;;;3.40;99.90;;;;;;5116989;27;19926;-76
2023/04/06 05:58:26;;;;;;;;;;;;;;;;;;5116881;27;19922;-74
2023/04/06 06:00:56;;;;;;;;;;;3.50;99.90;;;;;;5099787;27;19915;-74
2023/04/06 06:03:22;;;;;;;;;;;;;;;;;;5147438;27;19916;-74
2023/04/06 06:05:48;;;;;;;;;;;;;;;;;;5142657;27;19915;-74
2023/04/06 06:08:14;;;;;;;;;;;;;;;;;;5116439;28;19973;-73
2023/04/06 06:10:40;;;;;;;;;;;;;;;;;;5116391;27;19915;-74
2023/04/06 06:13:06;;;;;;;;;;;;;;;;;;5114936;27;20006;-74
2023/04/06 06:15:32;;;;;;;;;;;3.50;99.90;;;;;;5115175;27;19942;-74
2023/04/06 06:17:58;;;;;;;;;;;;;;;;;;5149211;27;19924;-74
2023/04/06 06:20:24;;;;;;;;;;;3.70;99.90;;;;;;5116440;27;19921;-75
2023/04/06 06:22:50;;;;;;;;;;;;;;;;;;5142597;27;19915;-73
2023/04/06 06:25:16;;;;;;;;;;;;;;;;;;5116420;27;19919;-74
2023/04/06 06:27:42;;;;;;;;;;;4.00;99.90;;;;;;5115971;27;19915;-75
2023/04/06 06:30:08;;;;;;;;;;;;;;;;;;5149765;27;19923;-74
2023/04/06 06:32:34;;;;;;;;;;;3.60;99.90;;;;;;5116237;27;20022;-76
2023/04/06 06:35:00;;;;;;;;;;;;;;;;;;5132989;27;19927;-74
2023/04/06 06:37:25;;;;;;;;;;;3.80;99.90;;;;;;5115578;27;19927;-75
2023/04/06 06:39:51;;;;;;;;;;;;;;;;;;5115800;27;19921;-74
2023/04/06 06:42:17;;;;;;;;;;;4.00;99.90;;;;;;5115670;27;19915;-75
2023/04/06 06:44:43;;;;;;;;;;;;;;;;;;5116121;27;20371;-75
2023/04/06 06:47:09;;;;;;;;;;;3.80;99.90;;;;;;5115335;27;19923;-75
2023/04/06 06:49:34;;;;;;;;;;;4.10;99.90;;;;;;5115553;27;19911;-75
2023/04/06 06:52:00;;;;;;;;;;;4.20;99.90;;;;;;5098418;27;19915;-75
2023/04/06 06:54:26;;;;;;;;;;;;;;;;;;5114841;27;19942;-75
2023/04/06 06:56:52;;;;;;;;;;;;;;;;;;5115182;27;20375;-74
2023/04/06 06:59:18;;;;;;;;;;;;;;;;;;5115430;27;19919;-75
2023/04/06 07:01:44;;;;;;;;;;;4.70;99.90;;;;;;5143303;27;19920;-75
2023/04/06 07:04:10;;;;;;;;;;;;;;;;;;5097931;27;19930;-75
2023/04/06 07:06:36;;;;;;;;;;;;;;;;;;5114764;27;20013;-75
2023/04/06 07:09:03;;;;;;;;;;;;;;;;;;5098289;27;19915;-75
2023/04/06 07:11:29;;;;;;;;;;;5.10;99.90;;;;;;5115565;27;20379;-75
2023/04/06 07:13:55;;;;;;;;;;;;;;;;;;5115632;27;19937;-75
2023/04/06 07:16:21;;;;;;;;;;;;;;;;;;5116757;27;20395;-76
2023/04/06 07:18:47;;;;;;;;;;;;;;;;;;5116783;27;19919;-76
2023/04/06 07:21:13;;;;;;;;;;;;;;;;;;5115965;27;19915;-76
2023/04/06 07:23:39;;;;;;;;;;;;;;;;;;5116944;27;19922;-76
2023/04/06 07:26:05;;;;;;;;;;;5.90;99.90;;;;;;5150788;27;20292;-76
2023/04/06 07:28:31;;;;;;;;;;;;;;;;;;5116397;27;19922;-76
2023/04/06 07:30:57;;;;;;;;;;;;;;;;;;5116325;27;19919;-76
2023/04/06 07:33:23;;;;;;;;;;;;;;;;;;5116718;27;19922;-76
2023/04/06 07:35:49;;;;;;;;;;;;;;;;;;5116230;28;19926;-76
2023/04/06 07:38:15;;;;;;;;;;;;;;;;;;5116158;27;19919;-76
2023/04/06 07:40:41;;;;;;;;;;;;;;;;;;5116199;28;19925;-76
2023/04/06 07:43:07;;;;;;;;;;;6.10;99.90;;;;;;5116159;28;19922;-75
2023/04/06 07:45:33;;;;;;;;;;;;;;;;;;5151738;27;19927;-78
2023/04/06 07:47:59;;;;;;;;;;;;;;;;;;5116434;28;20273;-78
2023/04/06 07:50:25;;;;;;;;;;;6.30;99.90;;;;;;5116197;28;19941;-78
2023/04/06 07:52:51;;;;;;;;;;;;;;;;;;5150347;27;19915;-78
2023/04/06 07:55:17;;;;;;;;;;;;;;;;;;5134550;28;19930;-78
2023/04/06 07:57:43;;;;;;;;;;;;;;;;;;5116134;27;19976;-79
2023/04/06 08:00:09;;;;;;;;;;;;;;;;;;5116089;27;19976;-78
2023/04/06 08:02:35;;;;;;;;;;;;;;;;;;5150568;27;19915;-78
2023/04/06 08:05:00;;;;;;;;;;;6.70;99.90;;;;;;5116452;28;19922;-78
2023/04/06 08:07:27;;;;;;;;;;;;;;;;;;5116249;28;20324;-78
2023/04/06 08:09:53;;;;;;;;;;;;;;;;;;5116006;28;19922;-78
2023/04/06 08:12:19;;;;;;;;;;;;;;;;;;5099412;28;20263;-78
2023/04/06 08:14:45;;;;;;;;;;;;;;;;;;5116145;28;19919;-78
2023/04/06 08:17:10;;;;;;;;;;;;;;;;;;5098935;28;20366;-78
2023/04/06 08:19:37;;;;;;;;;;;;;;;;;;5099140;28;19926;-78
2023/04/06 08:22:02;;;;;;;;;;;7.40;99.90;;;;;;5150625;27;20032;-78
2023/04/06 08:24:28;;;;;;;;;;;;;;;;;;5116040;28;19979;-78
2023/04/06 08:26:55;;;;;;;;;;;;;;;;;;5098766;28;19915;-78
2023/04/06 08:29:20;;;;;;;;;;;7.60;99.90;;;;;;5150153;27;19919;-78
2023/04/06 08:31:46;;;;;;;;;;;;;;;;;;5150385;27;19919;-78
2023/04/06 08:34:12;;;;;;;;;;;;;;;;;;5119917;27;19915;-78
2023/04/06 08:36:38;;;;;;;;;;;7.90;99.90;;;;;;5119825;27;19915;-78
2023/04/06 08:39:04;;;;;;;;;;;;;;;;;;5136848;27;20422;-78
2023/04/06 08:41:30;;;;;;;;;;;8.10;99.90;;;;;;5154634;27;19965;-78
2023/04/06 08:43:56;;;;;;;;;;;;;;;;;;5153259;27;19923;-78
2023/04/06 08:46:22;;;;;;;;;;;;;;;;;;5119533;27;19958;-77
2023/04/06 08:48:51;;;;;;;;;;;;;;;;;;5119585;27;19919;-77
2023/04/06 08:51:17;;;;;;;;;;;;;;;;;;5118825;27;19967;-78
2023/04/06 08:53:43;;;;;;;;;;;;;;;;;;5101946;27;19920;-77
2023/04/06 08:56:10;;;;;;;;;;;;;;;;;;5117855;27;20320;-78
2023/04/06 08:58:37;;;;;;;;;;;8.70;99.90;;;;;;5100839;27;19919;-78
2023/04/06 09:01:03;;;;;;;;;;;;;;;;;;5119082;27;19963;-79
2023/04/06 09:03:29;;;;;;;;;;;;;;;;;;5119487;27;20023;-78
2023/04/06 09:05:54;;;;;;;;;;;8.70;99.90;;;;;;5101958;27;20056;-78
2023/04/06 09:08:20;;;;;;;;;;;;;;;;;;5153772;27;20006;-78
2023/04/06 09:10:46;;;;;;;;;;;;;;;;;;5119359;27;20275;-78
2023/04/06 09:13:12;;;;;;;;;;;;;;;;;;5118812;27;19915;-78
2023/04/06 09:15:38;;;;;;;;;;;;;;;;;;5101862;27;19998;-78
2023/04/06 09:18:05;;;;;;;;;;;;;;;;;;5118754;27;20010;-78
2023/04/06 09:20:31;;;;;;;;;;;9.20;99.90;;;;;;5153705;27;19915;-78
2023/04/06 09:22:57;;;;;;;;;;;9.30;99.90;;;;;;5135894;27;19926;-78
2023/04/06 09:25:23;;;;;;;;;;;9.40;99.90;;;;;;5153265;27;19916;-78
2023/04/06 09:27:49;;;;;;;;;;;;;;;;;;5153161;27;20427;-77
2023/04/06 09:30:16;;;;;;;;;;;;;;;;;;5153026;27;19972;-78
2023/04/06 09:32:42;;;;;;;;;;;;;;;;;;5152972;27;19922;-78
2023/04/06 09:35:08;;;;;;;;;;;;;;;;;;5101426;27;19919;-78
2023/04/06 09:37:35;;;;;;;;;;;;;;;;;;5118484;27;19946;-78
2023/04/06 09:40:04;;;;;;;;;;;10.20;99.90;;;;;;5152947;27;19916;-78
2023/04/06 09:42:30;;;;;;;;;;;;;;;;;;5135747;27;19960;-78
2023/04/06 09:44:56;;;;;;;;;;;;;;;;;;5101209;27;20341;-78
2023/04/06 09:47:23;;;;;;;;;;;;;;;;;;5118440;27;19921;-78
2023/04/06 09:49:48;;;;;;;;;;;;;;;;;;5153135;27;20017;-78
2023/04/06 09:52:15;;;;;;;;;;;10.20;99.90;;;;;;5101292;27;19915;-78
2023/04/06 09:54:41;;;;;;;;;;;;;;;;;;5152789;27;19919;-78
2023/04/06 09:57:07;;;;;;;;;;;;;;;;;;5118059;27;20386;-78
2023/04/06 09:59:33;;;;;;;;;;;;;;;;;;5152659;27;19922;-78
2023/04/06 10:01:59;;;;;;;;;;;10.40;99.90;;;;;;5118069;27;19915;-78
2023/04/06 10:04:25;;;;;;;;;;;;;;;;;;5118169;27;19915;-76
2023/04/06 10:06:52;;;;;;;;;;;;;;;;;;5117852;27;20007;-77
2023/04/06 10:09:18;;;;;;;;;;;10.60;99.90;;;;;;5101119;27;19923;-78
2023/04/06 10:11:44;;;;;;;;;;;10.70;99.90;;;;;;5101337;27;19959;-77
2023/04/06 10:14:11;;;;;;;;;;;10.50;99.90;;;;;;5152132;27;20287;-77
2023/04/06 10:16:37;;;;;;;;;;;;;;;;;;5152643;27;19922;-78
2023/04/06 10:19:38;;;;;;;;;;;10.70;99.90;;;;;;5117833;27;20282;-78
2023/04/06 10:22:04;;;;;;;;;;;;;;;;;;5056096;28;19947;-77
2023/04/06 10:24:30;;;;;;;;;;;;;;;;;;5109114;27;20347;-78
2023/04/06 10:26:56;;;;;;;;;;;;;;;;;;5117596;27;19922;-77
2023/04/06 10:29:22;;;;;;;;;;;;;;;;;;5118030;27;19944;-78
2023/04/06 10:31:48;;;;;;;;;;;;;;;;;;5117529;27;20281;-77
2023/04/06 10:34:14;;;;;;;;;;;;;;;;;;5117400;27;19919;-78
2023/04/06 10:36:40;;;;;;;;;;;11.10;98.60;;;;;;5151737;27;19915;-77
2023/04/06 10:39:06;;;;;;;;;;;;;;;;;;5117488;27;19915;-77
2023/04/06 10:41:33;;;;;;;;;;;11.30;98.70;;;;;;5151723;27;19915;-78
2023/04/06 10:43:58;;;;;;;;;;;11.50;98.60;;;;;;5134662;27;19915;-77
2023/04/06 10:46:25;;;;;;;;;;;11.60;98.50;;;;;;5117455;27;19952;-77
2023/04/06 10:48:51;;;;;;;;;;;11.60;98.60;;;;;;5117576;27;19916;-78
2023/04/06 10:51:17;;;;;;;;;;;;;;;;;;5151486;27;20006;-77
2023/04/06 10:53:43;;;;;;;;;;;11.70;98.80;;;;;;5117350;27;19915;-78
2023/04/06 10:56:10;;;;;;;;;;;;;;;;;;5116266;27;19972;-78
2023/04/06 10:58:36;;;;;;;;;;;11.80;98.30;;;;;;5099963;27;19916;-78
2023/04/06 11:01:02;;;;;;;;;;;12.00;98.40;;;;;;5116825;27;20005;-77
2023/04/06 11:03:28;;;;;;;;;;;;;;;;;;5151367;27;19922;-78
2023/04/06 11:05:54;;;;;;;;;;;12.00;98.30;;;;;;5151195;27;19922;-78
2023/04/06 11:08:24;;;;;;;;;;;11.90;98.50;;;;;;5151322;27;19916;-78
2023/04/06 11:10:50;;;;;;;;;;;;;;;;;;5116768;27;19915;-78
2023/04/06 11:13:17;;;;;;;;;;;;;;;;;;5116425;27;19998;-78
2023/04/06 11:15:43;;;;;;;;;;;;;;;;;;5150982;27;19919;-78
2023/04/06 11:18:09;;;;;;;;;;;;;;;;;;5099831;27;20331;-78
2023/04/06 11:20:35;;;;;;;;;;;12.40;98.00;;;;;;5150985;27;20362;-78
2023/04/06 11:23:01;;;;;;;;;;;12.30;97.60;;;;;;5099935;27;19964;-77
2023/04/06 11:25:27;;;;;;;;;;;12.20;97.70;;;;;;5150825;27;19915;-73
2023/04/06 11:27:53;;;;;;;;;;;12.50;97.80;;;;;;5151102;27;19964;-73
2023/04/06 11:30:19;;;;;;;;;;;12.40;97.80;;;;;;5133869;27;20010;-73
2023/04/06 11:32:45;;;;;;;;;;;;;;;;;;5133817;27;20343;-73
2023/04/06 11:35:21;;;;;;;;;;;12.50;97.50;;;;;;5116581;27;20323;-73
2023/04/06 11:37:47;;;;;;;;;;;;;;;;;;5116037;27;19920;-73
2023/04/06 11:40:13;;;;;;;;;;;;;;;;;;5116361;28;19916;-73
2023/04/06 11:42:39;;;;;;;;;;;;;;;;;;5116604;27;19915;-73
2023/04/06 11:45:05;;;;;;;;;;;;;;;;;;5150408;27;20014;-73
2023/04/06 11:47:31;;;;;;;;;;;;;;;;;;5116301;28;19927;-73
2023/04/06 11:49:59;;;;;;;;;;;;;;;;;;5116638;28;19976;-73
2023/04/06 11:52:25;;;;;;;;;;;;;;;;;;5099632;28;20014;-73
2023/04/06 11:54:51;;;;;;;;;;;12.50;97.80;;;;;;5116315;28;19927;-73
2023/04/06 11:57:18;;;;;;;;;;;12.60;97.80;;;;;;5116230;28;19919;-73
2023/04/06 11:59:44;;;;;;;;;;;;;;;;;;5150608;27;20389;-71
2023/04/06 12:02:10;;;;;;;;;;;;;;;;;;5116461;28;20282;-73
2023/04/06 12:04:36;;;;;;;;;;;;;;;;;;5150513;27;19998;-73
2023/04/06 12:07:02;;;;;;;;;;;;;;;;;;5118290;27;19923;-73
2023/04/06 12:09:28;;;;;;;;;;;;;;;;;;5120442;27;19915;-73
2023/04/06 12:11:54;;;;;;;;;;;13.10;97.30;;;;;;5103380;27;19915;-73
2023/04/06 12:14:20;;;;;;;;;;;;;;;;;;5120134;27;20369;-73
2023/04/06 12:16:46;;;;;;;;;;;;;;;;;;5103076;27;19916;-73
2023/04/06 12:19:12;;;;;;;;;;;;;;;;;;5154361;27;19967;-73
2023/04/06 12:21:38;;;;;;;;;;;;;;;;;;5119852;27;19960;-73
2023/04/06 12:24:04;;;;;;;;;;;;;;;;;;5119944;27;19966;-73
2023/04/06 12:26:30;;;;;;;;;;;;;;;;;;5119902;27;19950;-73
2023/04/06 12:28:56;;;;;;;;;;;13.00;97.30;;;;;;5119857;27;19915;-72
2023/04/06 12:31:22;;;;;;;;;;;;;;;;;;5118682;27;19916;-71
2023/04/06 12:33:48;;;;;;;;;;;;;;;;;;5117695;27;19933;-72
2023/04/06 12:36:15;;;;;;;;;;;13.10;98.30;;;;;;5131944;27;20272;-72
2023/04/06 12:38:41;;;;;;;;;;;;;;;;;;5118315;27;20387;-72
2023/04/06 12:41:07;;;;;;;;;;;;;;;;;;5119463;27;19970;-72
2023/04/06 12:43:33;;;;;;;;;;;;;;;;;;5119825;27;19969;-72
2023/04/06 12:45:59;;;;;;;;;;;;;;;;;;5119418;27;20444;-72
2023/04/06 12:48:27;;;;;;;;;;;12.90;99.80;;;;;;5119752;27;19922;-72
2023/04/06 12:50:53;;;;;;;;;;;;;;;;;;5119347;27;20063;-72
2023/04/06 12:53:19;;;;;;;;;;;;;;;;;;5119357;27;19915;-72
2023/04/06 12:55:45;;;;;;;;;;;;;;;;;;5117912;27;20328;-72
2023/04/06 12:58:11;;;;;;;;;;;13.00;99.90;;;;;;5102417;27;19919;-71
2023/04/06 13:00:37;;;;;;;;;;;;;;;;;;5102086;27;19922;-72
2023/04/06 13:03:03;;;;;;;;;;;13.00;99.90;;;;;;5119649;27;19967;-72
2023/04/06 13:05:29;;;;;;;;;;;;;;;;;;5121572;27;20411;-72
2023/04/06 13:07:54;;;;;;;;;;;12.90;99.90;;;;;;5148365;27;19968;-72
2023/04/06 13:10:20;;;;;;;;;;;;;;;;;;5117822;27;19915;-72
2023/04/06 13:12:46;;;;;;;;;;;;;;;;;;5117374;27;19968;-72
2023/04/06 13:15:12;;;;;;;;;;;;;;;;;;5117440;27;19970;-72
2023/04/06 13:17:38;;;;;;;;;;;;;;;;;;5117748;27;19915;-72
2023/04/06 13:20:05;;;;;;;;;;;;;;;;;;5117440;27;19915;-72
2023/04/06 13:22:31;;;;;;;;;;;12.30;99.90;;;;;;5118079;27;19938;-72
2023/04/06 13:24:57;;;;;;;;;;;12.30;99.90;;;;;;5100299;27;20359;-72
2023/04/06 13:27:23;;;;;;;;;;;;;;;;;;5117556;27;19916;-72
2023/04/06 13:29:48;;;;;;;;;;;12.00;99.90;;;;;;5117123;27;19915;-72
2023/04/06 13:32:14;;;;;;;;;;;;;;;;;;5117477;27;19954;-72
2023/04/06 13:34:44;;;;;;;;;;;;;;;;;;5116954;27;19926;-72
2023/04/06 13:37:10;;;;;;;;;;;;;;;;;;5117357;27;20022;-72
2023/04/06 13:39:36;;;;;;;;;;;11.70;99.90;;;;;;5117007;27;19988;-71
2023/04/06 13:42:02;;;;;;;;;;;11.60;99.90;;;;;;5118226;27;19923;-71
2023/04/06 13:44:28;;;;;;;;;;;11.50;99.90;;;;;;5118213;27;19916;-76
2023/04/06 13:46:54;;;;;;;;;;;11.60;99.90;;;;;;5118295;27;19960;-76
2023/04/06 13:49:20;;;;;;;;;;;11.30;99.90;;;;;;5118102;27;19960;-71
2023/04/06 13:51:45;;;;;;;;;;;11.60;99.90;;;;;;5118639;27;19916;-71
2023/04/06 13:54:11;;;;;;;;;;;;;;;;;;5117973;27;20335;-71
2023/04/06 13:56:37;;;;;;;;;;;;;;;;;;5119399;27;19915;-72
2023/04/06 13:59:03;;;;;;;;;;;;;;;;;;5117765;27;20370;-72
2023/04/06 14:01:29;;;;;;;;;;;;;;;;;;5117893;27;19915;-72
2023/04/06 14:03:55;;;;;;;;;;;;;;;;;;5118373;27;19987;-72
2023/04/06 14:06:21;;;;;;;;;;;;;;;;;;5117747;27;20351;-72
2023/04/06 14:08:47;;;;;;;;;;;;;;;;;;5115989;27;19967;-71
2023/04/06 14:11:13;;;;;;;;;;;;;;;;;;5099535;27;19923;-74
2023/04/06 14:13:39;;;;;;;;;;;;;;;;;;5116728;27;19983;-71
2023/04/06 14:16:05;;;;;;;;;;;11.20;99.90;;;;;;5116779;27;20023;-72
2023/04/06 14:18:33;;;;;;;;;;;;;;;;;;5116527;27;19955;-71
2023/04/06 14:20:59;;;;;;;;;;;;;;;;;;5116557;27;19923;-71
2023/04/06 14:23:28;;;;;;;;;;;10.90;99.90;;;;;;5115688;27;19919;-71
2023/04/06 14:25:54;;;;;;;;;;;;;;;;;;5116287;27;20260;-72
2023/04/06 14:28:20;;;;;;;;;;;;;;;;;;5116263;27;20089;-71
2023/04/06 14:30:46;;;;;;;;;;;;;;;;;;5115191;27;19983;-72
2023/04/06 14:33:12;;;;;;;;;;;;;;;;;;5116136;27;19916;-71
2023/04/06 14:35:38;;;;;;;;;;;;;;;;;;5116015;27;20259;-71
2023/04/06 14:38:04;;;;;;;;;;;;;;;;;;5130373;27;19919;-71
2023/04/06 14:40:30;;;;;;;;;;;;;;;;;;5116338;27;19996;-71
2023/04/06 14:42:56;;;;;;;;;;;;;;;;;;5116109;27;19923;-71
2023/04/06 14:45:22;;;;;;;;;;;;;;;;;;5116117;27;19911;-71
2023/04/06 14:47:48;;;;;;;;;;;10.50;99.90;;;;;;5149629;27;19916;-71
2023/04/06 14:50:14;;;;;;;;;;;;;;;;;;5115622;27;19915;-71
2023/04/06 14:52:47;;;;;;;;;;;10.70;99.90;;;;;;5122993;27;19922;-72
2023/04/06 14:55:13;;;;;;;;;;;10.50;99.90;;;;;;5126602;28;20303;-72
2023/04/06 14:57:39;;;;;;;;;;;10.40;99.90;;;;;;5123781;28;19920;-71
2023/04/06 15:00:07;;;;;;;;;;;10.40;99.90;;;;;;5115217;28;20011;-72
2023/04/06 15:02:33;;;;;;;;;;;10.30;99.90;;;;;;5110252;28;19920;-71
2023/04/06 15:04:59;;;;;;;;;;;10.20;99.90;;;;;;5123121;28;20348;-71
2023/04/06 15:07:24;;;;;;;;;;;10.30;99.90;;;;;;5097031;28;20003;-71
2023/04/06 15:09:50;;;;;;;;;;;;;;;;;;5119527;28;19919;-72
2023/04/06 15:12:16;;;;;;;;;;;;;;;;;;5127926;28;20034;-71
2023/04/06 15:14:42;;;;;;;;;;;;;;;;;;5103960;28;19969;-71
2023/04/06 15:17:08;;;;;;;;;;;;;;;;;;5111989;28;19924;-71
2023/04/06 15:19:34;;;;;;;;;;;;;;;;;;5116332;28;19919;-71
2023/04/06 15:22:00;;;;;;;;;;;;;;;;;;5111271;28;20293;-72
2023/04/06 15:24:26;;;;;;;;;;;10.10;99.90;;;;;;5099558;28;19919;-71
2023/04/06 15:26:52;;;;;;;;;;;;;;;;;;5119928;28;19920;-71
2023/04/06 15:29:18;;;;;;;;;;;;;;;;;;5116568;28;20403;-71
2023/04/06 15:31:44;;;;;;;;;;;;;;;;;;5113420;28;19924;-71
2023/04/06 15:34:10;;;;;;;;;;;;;;;;;;5111800;28;19926;-71
2023/04/06 15:36:36;;;;;;;;;;;9.70;99.90;;;;;;5127604;28;19926;-71
2023/04/06 15:39:03;;;;;;;;;;;9.80;99.90;;;;;;5112380;28;19919;-71
2023/04/06 15:41:28;;;;;;;;;;;;;;;;;;5124371;28;20006;-71
2023/04/06 15:43:54;;;;;;;;;;;9.70;99.90;;;;;;5118238;28;20034;-71
2023/04/06 15:46:20;;;;;;;;;;;9.60;99.90;;;;;;5110970;28;20001;-71